Fairview, UT (84629)

6:31 PM MST on December 28, 2014 (GMT -0700)
Carbon County | Change Station
CLOSE
Current Station
Airport
Location: Price,
Elevation: 5955 ft
Nearby Weather Stations
Active Advisory: Winter Weather Advisory

Elev 5955 ft 39.61 °N, 110.75 °W | Updated 38 minutes ago

Overcast
Overcast
26 °F
Feels Like 18 °F
N
8
Wind Variable Wind from NE

Today
High -- | Low -- °F
--% Chance of Precip.
Yesterday
High -- | Low -- °F
Precip. -- in
7:46 AM 5:08 PM
First Quarter, 53% visible
Pressure 30.17 in
Visibility 10.0 miles
Clouds Overcast 4400 ft
Windchill 18 °F
Dew Point 13 °F
Humidity 58%
Rainfall 0.00 in
Snow Depth Not available.
UV 0 out of 12
Pollen .10 out of 12
Air Quality Not available.
Flu Activity Not available.
METAR KPUC 290053Z AUTO 04007KT 10SM OVC044 M03/M11 A2998 RMK AO2 SLP215 T10331106

More Conditions Fewer Conditions

Pressure 30.17 in
Visibility 10.0 miles
Clouds Overcast 4400 ft
Windchill 18 °F
Dew Point 13 °F
Humidity 58%
Rainfall 0.00 in
Snow Depth Not available.
UV 0 out of 12
Pollen .10 out of 12
Air Quality Not available.
Flu Activity Not available.
METAR KPUC 290053Z AUTO 04007KT 10SM OVC044 M03/M11 A2998 RMK AO2 SLP215 T10331106

More Conditions Fewer Conditions

10-Day Weather Forecast

Almanac

Astronomy

Dec. 28, 2014 Rise Set
Actual Time
Civil Twilight
Nautical Twilight
Astronomical Twilight
Moon
Length of Visible Light
Length of Day
Tomorrow will be .
, % of the Moon is Illuminated

Today's Extremes

State Highs State Lows

Community

WunderPhotos

Upload Photos

1,781,489 photos uploaded!

WunderBlogs® & News

Nearby

Air Quality

  Air Quality AQ Index Pollutant
Not available.

Snow Depth

Station Depth Elevation

Earthquake Activity

City Distance Mag. Time & Date
Minimum magnitude displayed is 2.5.

Coastal Water Temperatures

Place Temperature

Nearby Weather Stations